Terminal Aerodrome Forecast
Issued by NWS Indianapolis, IN

Home | Current Version | Previous Version | Text Only | Print | Product List | Glossary On
Versions: 1 2 3 4 5 6 7 8 9 10 11 12 13 14 15 16 17 18 19 20 21 22 23 24 25
000
FTUS43 KIND 301100
TAFIND
TAF
KIND 301120Z 3012/3118 18007KT P6SM SCT045 OVC080
      TEMPO 3012/3015 5SM -SHRA
     FM301700 21012G20KT P6SM VCTS BKN040CB
     FM310100 20009KT 5SM -TSRA BKN035CB
     FM310700 21006KT 5SM BR VCTS BKN015CB=

USA.gov is the U.S. government's official web portal to all federal, state and local government web resources and services.